sensor_id;sensor_type;location;lat;lon;timestamp;P1;durP1;ratioP1;P2;durP2;ratioP2
63953;SDS011;50128;52.094;5.232;2023-04-24T00:00:07;2.7;;;1.4;;
63953;SDS011;50128;52.094;5.232;2023-04-24T00:03:21;4.2;;;1.7;;
63953;SDS011;50128;52.094;5.232;2023-04-24T00:04:58;2.4;;;1.4;;
63953;SDS011;50128;52.094;5.232;2023-04-24T00:06:34;3.1;;;1.5;;
63953;SDS011;50128;52.094;5.232;2023-04-24T00:08:11;3.2;;;1.4;;
63953;SDS011;50128;52.094;5.232;2023-04-24T00:11:25;3.1;;;1.5;;
63953;SDS011;50128;52.094;5.232;2023-04-24T00:13:02;2.8;;;2.4;;
63953;SDS011;50128;52.094;5.232;2023-04-24T00:14:38;3.2;;;2.7;;
63953;SDS011;50128;52.094;5.232;2023-04-24T00:17:50;4.61;;;3.2;;
63953;SDS011;50128;52.094;5.232;2023-04-24T00:19:26;5.11;;;3.5;;
63953;SDS011;50128;52.094;5.232;2023-04-24T00:21:04;4.0;;;3.0;;
63953;SDS011;50128;52.094;5.232;2023-04-24T00:24:16;3.3;;;2.7;;
63953;SDS011;50128;52.094;5.232;2023-04-24T00:25:54;3.3;;;2.7;;
63953;SDS011;50128;52.094;5.232;2023-04-24T00:27:30;3.7;;;3.3;;
63953;SDS011;50128;52.094;5.232;2023-04-24T00:29:07;4.41;;;3.2;;
63953;SDS011;50128;52.094;5.232;2023-04-24T00:32:20;3.9;;;3.1;;
63953;SDS011;50128;52.094;5.232;2023-04-24T00:33:57;4.3;;;3.0;;
63953;SDS011;50128;52.094;5.232;2023-04-24T00:35:34;4.41;;;3.8;;
63953;SDS011;50128;52.094;5.232;2023-04-24T00:38:46;5.5;;;4.2;;
63953;SDS011;50128;52.094;5.232;2023-04-24T00:40:22;5.3;;;4.2;;
63953;SDS011;50128;52.094;5.232;2023-04-24T00:41:58;4.8;;;3.7;;
63953;SDS011;50128;52.094;5.232;2023-04-24T00:45:12;4.61;;;3.9;;
63953;SDS011;50128;52.094;5.232;2023-04-24T00:46:49;4.5;;;3.9;;
63953;SDS011;50128;52.094;5.232;2023-04-24T00:48:26;5.4;;;4.41;;
63953;SDS011;50128;52.094;5.232;2023-04-24T00:50:03;4.61;;;4.0;;
63953;SDS011;50128;52.094;5.232;2023-04-24T00:53:18;7.2;;;5.9;;
63953;SDS011;50128;52.094;5.232;2023-04-24T00:54:55;6.7;;;5.3;;
63953;SDS011;50128;52.094;5.232;2023-04-24T00:56:32;7.7;;;6.0;;
63953;SDS011;50128;52.094;5.232;2023-04-24T00:59:47;6.8;;;6.1;;
63953;SDS011;50128;52.094;5.232;2023-04-24T01:01:23;7.3;;;6.6;;
63953;SDS011;50128;52.094;5.232;2023-04-24T01:03:00;9.0;;;7.4;;
63953;SDS011;50128;52.094;5.232;2023-04-24T01:04:40;8.6;;;7.6;;
63953;SDS011;50128;52.094;5.232;2023-04-24T01:07:56;8.4;;;7.5;;
63953;SDS011;50128;52.094;5.232;2023-04-24T01:09:33;7.6;;;6.8;;
63953;SDS011;50128;52.094;5.232;2023-04-24T01:11:11;8.81;;;7.9;;
63953;SDS011;50128;52.094;5.232;2023-04-24T01:14:23;9.21;;;8.31;;
63953;SDS011;50128;52.094;5.232;2023-04-24T01:16:00;9.5;;;8.5;;
63953;SDS011;50128;52.094;5.232;2023-04-24T01:17:39;9.31;;;8.0;;
63953;SDS011;50128;52.094;5.232;2023-04-24T01:20:56;8.81;;;7.9;;
63953;SDS011;50128;52.094;5.232;2023-04-24T01:22:39;8.71;;;7.8;;
63953;SDS011;50128;52.094;5.232;2023-04-24T01:24:16;9.5;;;8.6;;
63953;SDS011;50128;52.094;5.232;2023-04-24T01:25:54;9.81;;;8.81;;
63953;SDS011;50128;52.094;5.232;2023-04-24T01:29:08;9.31;;;8.4;;
63953;SDS011;50128;52.094;5.232;2023-04-24T01:30:45;9.1;;;8.2;;
63953;SDS011;50128;52.094;5.232;2023-04-24T01:32:22;10.1;;;8.81;;
63953;SDS011;50128;52.094;5.232;2023-04-24T01:37:13;9.4;;;8.4;;
63953;SDS011;50128;52.094;5.232;2023-04-24T01:38:50;10.4;;;8.9;;
63953;SDS011;50128;52.094;5.232;2023-04-24T01:40:27;8.71;;;7.8;;
63953;SDS011;50128;52.094;5.232;2023-04-24T01:43:41;8.81;;;7.8;;
63953;SDS011;50128;52.094;5.232;2023-04-24T01:45:18;9.31;;;8.2;;
63953;SDS011;50128;52.094;5.232;2023-04-24T01:46:55;8.81;;;7.8;;
63953;SDS011;50128;52.094;5.232;2023-04-24T01:50:10;9.31;;;7.9;;
63953;SDS011;50128;52.094;5.232;2023-04-24T01:51:47;8.9;;;8.0;;
63953;SDS011;50128;52.094;5.232;2023-04-24T01:53:24;7.9;;;7.1;;
63953;SDS011;50128;52.094;5.232;2023-04-24T01:55:01;7.2;;;6.5;;
63953;SDS011;50128;52.094;5.232;2023-04-24T01:58:18;7.7;;;7.0;;
63953;SDS011;50128;52.094;5.232;2023-04-24T01:59:56;8.31;;;7.5;;
63953;SDS011;50128;52.094;5.232;2023-04-24T02:01:33;8.2;;;7.4;;
63953;SDS011;50128;52.094;5.232;2023-04-24T02:03:11;7.8;;;6.1;;
63953;SDS011;50128;52.094;5.232;2023-04-24T02:06:23;7.1;;;6.4;;
63953;SDS011;50128;52.094;5.232;2023-04-24T02:07:59;5.2;;;4.7;;
63953;SDS011;50128;52.094;5.232;2023-04-24T02:09:37;5.8;;;5.2;;
63953;SDS011;50128;52.094;5.232;2023-04-24T02:12:49;5.9;;;5.2;;
63953;SDS011;50128;52.094;5.232;2023-04-24T02:14:26;5.6;;;5.0;;
63953;SDS011;50128;52.094;5.232;2023-04-24T02:16:02;6.5;;;5.4;;
63953;SDS011;50128;52.094;5.232;2023-04-24T02:19:15;6.1;;;5.4;;
63953;SDS011;50128;52.094;5.232;2023-04-24T02:20:51;5.9;;;4.91;;
63953;SDS011;50128;52.094;5.232;2023-04-24T02:22:29;6.2;;;5.4;;
63953;SDS011;50128;52.094;5.232;2023-04-24T02:25:42;7.0;;;6.3;;
63953;SDS011;50128;52.094;5.232;2023-04-24T02:27:18;6.7;;;6.0;;
63953;SDS011;50128;52.094;5.232;2023-04-24T02:28:55;7.4;;;6.4;;
63953;SDS011;50128;52.094;5.232;2023-04-24T02:30:31;6.7;;;6.1;;
63953;SDS011;50128;52.094;5.232;2023-04-24T02:33:45;7.6;;;6.8;;
63953;SDS011;50128;52.094;5.232;2023-04-24T02:35:21;7.8;;;7.0;;
63953;SDS011;50128;52.094;5.232;2023-04-24T02:36:58;7.8;;;6.3;;
63953;SDS011;50128;52.094;5.232;2023-04-24T02:40:11;7.8;;;6.3;;
63953;SDS011;50128;52.094;5.232;2023-04-24T02:41:48;7.0;;;6.3;;
63953;SDS011;50128;52.094;5.232;2023-04-24T02:43:24;8.0;;;7.2;;
63953;SDS011;50128;52.094;5.232;2023-04-24T02:45:02;8.31;;;6.7;;
63953;SDS011;50128;52.094;5.232;2023-04-24T02:48:16;6.6;;;5.6;;
63953;SDS011;50128;52.094;5.232;2023-04-24T02:49:52;6.6;;;5.6;;
63953;SDS011;50128;52.094;5.232;2023-04-24T02:51:28;7.2;;;6.3;;
63953;SDS011;50128;52.094;5.232;2023-04-24T02:54:43;7.9;;;7.1;;
63953;SDS011;50128;52.094;5.232;2023-04-24T02:56:19;7.1;;;6.4;;
63953;SDS011;50128;52.094;5.232;2023-04-24T02:57:56;7.2;;;6.5;;
63953;SDS011;50128;52.094;5.232;2023-04-24T03:01:08;8.1;;;7.2;;
63953;SDS011;50128;52.094;5.232;2023-04-24T03:02:45;7.8;;;6.9;;
63953;SDS011;50128;52.094;5.232;2023-04-24T03:04:22;8.5;;;7.1;;
63953;SDS011;50128;52.094;5.232;2023-04-24T03:05:59;8.2;;;7.4;;
63953;SDS011;50128;52.094;5.232;2023-04-24T03:09:12;8.5;;;7.6;;
63953;SDS011;50128;52.094;5.232;2023-04-24T03:10:49;8.6;;;7.7;;
63953;SDS011;50128;52.094;5.232;2023-04-24T03:12:26;9.71;;;8.4;;
63953;SDS011;50128;52.094;5.232;2023-04-24T03:15:39;9.0;;;7.9;;
63953;SDS011;50128;52.094;5.232;2023-04-24T03:17:16;8.9;;;8.0;;
63953;SDS011;50128;52.094;5.232;2023-04-24T03:18:53;9.9;;;8.9;;
63953;SDS011;50128;52.094;5.232;2023-04-24T03:22:07;9.6;;;8.71;;
63953;SDS011;50128;52.094;5.232;2023-04-24T03:23:44;8.1;;;7.3;;
63953;SDS011;50128;52.094;5.232;2023-04-24T03:25:20;7.8;;;7.0;;
63953;SDS011;50128;52.094;5.232;2023-04-24T03:26:57;8.2;;;7.3;;
63953;SDS011;50128;52.094;5.232;2023-04-24T03:30:12;8.1;;;6.8;;
63953;SDS011;50128;52.094;5.232;2023-04-24T03:31:49;8.81;;;7.9;;
63953;SDS011;50128;52.094;5.232;2023-04-24T03:33:25;9.6;;;8.71;;
63953;SDS011;50128;52.094;5.232;2023-04-24T03:36:39;10.8;;;9.71;;
63953;SDS011;50128;52.094;5.232;2023-04-24T03:38:15;10.4;;;9.4;;
63953;SDS011;50128;52.094;5.232;2023-04-24T03:39:51;11.8;;;10.6;;
63953;SDS011;50128;52.094;5.232;2023-04-24T03:43:05;10.6;;;9.5;;
63953;SDS011;50128;52.094;5.232;2023-04-24T03:44:41;10.5;;;9.4;;
63953;SDS011;50128;52.094;5.232;2023-04-24T03:46:18;9.21;;;8.1;;
63953;SDS011;50128;52.094;5.232;2023-04-24T04:20:11;8.1;;;6.7;;
63953;SDS011;50128;52.094;5.232;2023-04-24T04:21:47;8.1;;;7.2;;
63953;SDS011;50128;52.094;5.232;2023-04-24T04:23:23;8.81;;;7.5;;
63953;SDS011;50128;52.094;5.232;2023-04-24T04:26:37;9.21;;;7.5;;
63953;SDS011;50128;52.094;5.232;2023-04-24T04:28:14;9.21;;;7.8;;
63953;SDS011;50128;52.094;5.232;2023-04-24T04:29:51;8.71;;;7.8;;
63953;SDS011;50128;52.094;5.232;2023-04-24T04:33:03;7.9;;;7.1;;
63953;SDS011;50128;52.094;5.232;2023-04-24T04:34:39;9.9;;;8.6;;
63953;SDS011;50128;52.094;5.232;2023-04-24T04:36:15;9.71;;;8.71;;
63953;SDS011;50128;52.094;5.232;2023-04-24T04:39:27;9.21;;;8.31;;
63953;SDS011;50128;52.094;5.232;2023-04-24T04:41:04;10.3;;;8.9;;
63953;SDS011;50128;52.094;5.232;2023-04-24T04:42:40;9.81;;;8.4;;
63953;SDS011;50128;52.094;5.232;2023-04-24T04:44:16;9.21;;;8.1;;
63953;SDS011;50128;52.094;5.232;2023-04-24T04:47:28;10.5;;;8.5;;
63953;SDS011;50128;52.094;5.232;2023-04-24T04:49:04;10.5;;;9.4;;
63953;SDS011;50128;52.094;5.232;2023-04-24T04:50:40;9.4;;;8.4;;
63953;SDS011;50128;52.094;5.232;2023-04-24T04:53:52;10.9;;;9.4;;
63953;SDS011;50128;52.094;5.232;2023-04-24T04:55:30;9.71;;;7.6;;
63953;SDS011;50128;52.094;5.232;2023-04-24T04:57:06;11.6;;;9.31;;
63953;SDS011;50128;52.094;5.232;2023-04-24T05:00:18;10.3;;;9.1;;
63953;SDS011;50128;52.094;5.232;2023-04-24T05:01:55;12.0;;;10.0;;
63953;SDS011;50128;52.094;5.232;2023-04-24T05:03:31;12.5;;;10.21;;
63953;SDS011;50128;52.094;5.232;2023-04-24T05:06:45;10.3;;;9.21;;
63953;SDS011;50128;52.094;5.232;2023-04-24T05:08:20;11.3;;;10.1;;
63953;SDS011;50128;52.094;5.232;2023-04-24T05:09:57;11.1;;;9.81;;
63953;SDS011;50128;52.094;5.232;2023-04-24T05:11:33;9.9;;;8.81;;
63953;SDS011;50128;52.094;5.232;2023-04-24T05:14:45;11.9;;;9.6;;
63953;SDS011;50128;52.094;5.232;2023-04-24T05:16:21;10.3;;;8.9;;
63953;SDS011;50128;52.094;5.232;2023-04-24T05:17:57;10.8;;;8.2;;
63953;SDS011;50128;52.094;5.232;2023-04-24T05:21:10;11.0;;;8.81;;
63953;SDS011;50128;52.094;5.232;2023-04-24T05:22:46;10.8;;;9.1;;
63953;SDS011;50128;52.094;5.232;2023-04-24T05:24:23;9.1;;;8.2;;
63953;SDS011;50128;52.094;5.232;2023-04-24T05:27:35;8.81;;;7.2;;
63953;SDS011;50128;52.094;5.232;2023-04-24T05:29:12;7.8;;;6.4;;
63953;SDS011;50128;52.094;5.232;2023-04-24T05:30:48;8.2;;;6.8;;
63953;SDS011;50128;52.094;5.232;2023-04-24T05:32:24;7.3;;;5.9;;
63953;SDS011;50128;52.094;5.232;2023-04-24T05:35:36;8.2;;;6.5;;
63953;SDS011;50128;52.094;5.232;2023-04-24T05:37:13;8.1;;;6.5;;
63953;SDS011;50128;52.094;5.232;2023-04-24T05:38:49;9.0;;;6.1;;
63953;SDS011;50128;52.094;5.232;2023-04-24T05:42:01;7.5;;;6.3;;
63953;SDS011;50128;52.094;5.232;2023-04-24T05:43:38;5.0;;;3.9;;
63953;SDS011;50128;52.094;5.232;2023-04-24T05:45:14;4.91;;;2.5;;
63953;SDS011;50128;52.094;5.232;2023-04-24T05:48:27;4.0;;;1.9;;
63953;SDS011;50128;52.094;5.232;2023-04-24T05:50:03;3.0;;;1.0;;
63953;SDS011;50128;52.094;5.232;2023-04-24T05:51:41;3.3;;;1.5;;
63953;SDS011;50128;52.094;5.232;2023-04-24T05:54:53;2.7;;;1.2;;
63953;SDS011;50128;52.094;5.232;2023-04-24T05:56:29;3.4;;;1.4;;
63953;SDS011;50128;52.094;5.232;2023-04-24T05:58:06;3.3;;;1.4;;
63953;SDS011;50128;52.094;5.232;2023-04-24T05:59:42;2.8;;;1.0;;
63953;SDS011;50128;52.094;5.232;2023-04-24T06:02:55;2.7;;;1.11;;
63953;SDS011;50128;52.094;5.232;2023-04-24T06:04:31;2.8;;;1.2;;
63953;SDS011;50128;52.094;5.232;2023-04-24T06:06:08;2.4;;;1.2;;
63953;SDS011;50128;52.094;5.232;2023-04-24T06:09:20;2.7;;;1.4;;
63953;SDS011;50128;52.094;5.232;2023-04-24T06:10:56;2.7;;;1.0;;
63953;SDS011;50128;52.094;5.232;2023-04-24T06:12:32;3.4;;;1.2;;
63953;SDS011;50128;52.094;5.232;2023-04-24T06:15:45;2.21;;;1.2;;
63953;SDS011;50128;52.094;5.232;2023-04-24T06:17:21;3.8;;;1.8;;
63953;SDS011;50128;52.094;5.232;2023-04-24T06:18:57;4.1;;;2.0;;
63953;SDS011;50128;52.094;5.232;2023-04-24T06:20:33;3.8;;;1.9;;
63953;SDS011;50128;52.094;5.232;2023-04-24T06:23:45;4.5;;;2.4;;
63953;SDS011;50128;52.094;5.232;2023-04-24T06:25:21;4.3;;;2.0;;
63953;SDS011;50128;52.094;5.232;2023-04-24T06:27:01;3.8;;;2.4;;
63953;SDS011;50128;52.094;5.232;2023-04-24T06:30:13;6.8;;;4.61;;
63953;SDS011;50128;52.094;5.232;2023-04-24T06:31:50;8.1;;;5.8;;
63953;SDS011;50128;52.094;5.232;2023-04-24T06:33:26;8.71;;;7.2;;
63953;SDS011;50128;52.094;5.232;2023-04-24T06:36:39;13.2;;;9.5;;
63953;SDS011;50128;52.094;5.232;2023-04-24T06:38:15;11.7;;;9.9;;
63953;SDS011;50128;52.094;5.232;2023-04-24T06:39:52;13.6;;;10.4;;
63953;SDS011;50128;52.094;5.232;2023-04-24T06:41:28;12.8;;;10.4;;
63953;SDS011;50128;52.094;5.232;2023-04-24T06:44:40;14.1;;;10.8;;
63953;SDS011;50128;52.094;5.232;2023-04-24T06:46:16;15.2;;;12.3;;
63953;SDS011;50128;52.094;5.232;2023-04-24T06:47:52;16.2;;;13.3;;
63953;SDS011;50128;52.094;5.232;2023-04-24T06:51:04;17.2;;;14.0;;
63953;SDS011;50128;52.094;5.232;2023-04-24T06:52:41;20.11;;;15.0;;
63953;SDS011;50128;52.094;5.232;2023-04-24T06:54:17;18.3;;;14.2;;
63953;SDS011;50128;52.094;5.232;2023-04-24T06:57:29;19.11;;;15.7;;
63953;SDS011;50128;52.094;5.232;2023-04-24T06:59:06;19.11;;;15.6;;
63953;SDS011;50128;52.094;5.232;2023-04-24T07:00:42;19.8;;;15.2;;
63953;SDS011;50128;52.094;5.232;2023-04-24T07:03:54;19.91;;;15.5;;
63953;SDS011;50128;52.094;5.232;2023-04-24T07:05:31;20.5;;;14.4;;
63953;SDS011;50128;52.094;5.232;2023-04-24T07:07:07;19.7;;;15.0;;
63953;SDS011;50128;52.094;5.232;2023-04-24T07:08:43;19.91;;;13.3;;
63953;SDS011;50128;52.094;5.232;2023-04-24T07:11:55;17.91;;;12.9;;
63953;SDS011;50128;52.094;5.232;2023-04-24T07:13:31;15.2;;;12.3;;
63953;SDS011;50128;52.094;5.232;2023-04-24T07:15:08;18.7;;;13.4;;
63953;SDS011;50128;52.094;5.232;2023-04-24T07:18:22;20.2;;;13.2;;
63953;SDS011;50128;52.094;5.232;2023-04-24T07:19:58;18.11;;;13.1;;
63953;SDS011;50128;52.094;5.232;2023-04-24T07:21:34;18.41;;;13.4;;
63953;SDS011;50128;52.094;5.232;2023-04-24T07:24:46;17.3;;;12.9;;
63953;SDS011;50128;52.094;5.232;2023-04-24T07:26:22;21.7;;;13.4;;
63953;SDS011;50128;52.094;5.232;2023-04-24T07:27:59;18.41;;;12.7;;
63953;SDS011;50128;52.094;5.232;2023-04-24T07:29:35;22.0;;;14.3;;
63953;SDS011;50128;52.094;5.232;2023-04-24T07:32:49;17.41;;;12.1;;
63953;SDS011;50128;52.094;5.232;2023-04-24T07:34:25;16.7;;;12.5;;
63953;SDS011;50128;52.094;5.232;2023-04-24T07:36:01;18.91;;;13.3;;
63953;SDS011;50128;52.094;5.232;2023-04-24T07:39:14;20.5;;;13.0;;
63953;SDS011;50128;52.094;5.232;2023-04-24T07:40:50;20.11;;;14.2;;
63953;SDS011;50128;52.094;5.232;2023-04-24T07:42:28;18.8;;;12.7;;
63953;SDS011;50128;52.094;5.232;2023-04-24T07:45:40;20.8;;;13.1;;
63953;SDS011;50128;52.094;5.232;2023-04-24T07:47:16;21.0;;;12.6;;
63953;SDS011;50128;52.094;5.232;2023-04-24T07:48:52;21.0;;;12.6;;
63953;SDS011;50128;52.094;5.232;2023-04-24T07:50:28;21.0;;;10.3;;
63953;SDS011;50128;52.094;5.232;2023-04-24T07:53:42;20.0;;;10.21;;
63953;SDS011;50128;52.094;5.232;2023-04-24T07:55:19;22.4;;;10.4;;
63953;SDS011;50128;52.094;5.232;2023-04-24T07:56:56;22.8;;;10.7;;
63953;SDS011;50128;52.094;5.232;2023-04-24T08:00:08;24.2;;;10.8;;
63953;SDS011;50128;52.094;5.232;2023-04-24T08:01:45;23.7;;;10.1;;
63953;SDS011;50128;52.094;5.232;2023-04-24T08:03:21;26.0;;;9.81;;
63953;SDS011;50128;52.094;5.232;2023-04-24T08:06:34;23.2;;;9.21;;
63953;SDS011;50128;52.094;5.232;2023-04-24T08:08:10;21.5;;;8.31;;
63953;SDS011;50128;52.094;5.232;2023-04-24T08:09:46;21.6;;;8.0;;
63953;SDS011;50128;52.094;5.232;2023-04-24T08:11:22;22.1;;;8.2;;
63953;SDS011;50128;52.094;5.232;2023-04-24T08:14:35;22.9;;;8.1;;
63953;SDS011;50128;52.094;5.232;2023-04-24T08:16:11;20.6;;;7.2;;
63953;SDS011;50128;52.094;5.232;2023-04-24T08:17:47;19.41;;;6.4;;
63953;SDS011;50128;52.094;5.232;2023-04-24T08:21:00;20.41;;;6.0;;
63953;SDS011;50128;52.094;5.232;2023-04-24T08:22:36;20.9;;;5.8;;
63953;SDS011;50128;52.094;5.232;2023-04-24T08:24:12;18.8;;;6.4;;
63953;SDS011;50128;52.094;5.232;2023-04-24T08:27:25;21.6;;;6.7;;
63953;SDS011;50128;52.094;5.232;2023-04-24T08:29:01;19.61;;;5.8;;
63953;SDS011;50128;52.094;5.232;2023-04-24T08:30:37;19.7;;;5.3;;
63953;SDS011;50128;52.094;5.232;2023-04-24T08:33:51;19.2;;;5.6;;
63953;SDS011;50128;52.094;5.232;2023-04-24T08:35:27;17.61;;;5.2;;
63953;SDS011;50128;52.094;5.232;2023-04-24T08:37:03;20.2;;;5.6;;
63953;SDS011;50128;52.094;5.232;2023-04-24T08:38:39;17.2;;;4.7;;
63953;SDS011;50128;52.094;5.232;2023-04-24T08:41:52;16.0;;;4.91;;
63953;SDS011;50128;52.094;5.232;2023-04-24T08:43:29;10.5;;;3.2;;
63953;SDS011;50128;52.094;5.232;2023-04-24T08:45:09;10.8;;;3.3;;
63953;SDS011;50128;52.094;5.232;2023-04-24T08:48:24;11.7;;;3.5;;
63953;SDS011;50128;52.094;5.232;2023-04-24T08:50:02;9.5;;;3.4;;
63953;SDS011;50128;52.094;5.232;2023-04-24T08:51:38;12.3;;;3.6;;
63953;SDS011;50128;52.094;5.232;2023-04-24T08:53:16;14.1;;;3.6;;
63953;SDS011;50128;52.094;5.232;2023-04-24T08:56:30;11.8;;;3.3;;
63953;SDS011;50128;52.094;5.232;2023-04-24T08:58:10;13.8;;;4.1;;
63953;SDS011;50128;52.094;5.232;2023-04-24T08:59:46;11.8;;;3.8;;
63953;SDS011;50128;52.094;5.232;2023-04-24T09:03:01;12.3;;;4.41;;
63953;SDS011;50128;52.094;5.232;2023-04-24T09:04:40;15.2;;;5.0;;
63953;SDS011;50128;52.094;5.232;2023-04-24T09:06:18;12.3;;;3.9;;
63953;SDS011;50128;52.094;5.232;2023-04-24T09:07:57;12.6;;;3.9;;
63953;SDS011;50128;52.094;5.232;2023-04-24T09:11:14;14.4;;;3.7;;
63953;SDS011;50128;52.094;5.232;2023-04-24T09:12:52;12.3;;;3.7;;
63953;SDS011;50128;52.094;5.232;2023-04-24T09:14:29;15.0;;;4.3;;
63953;SDS011;50128;52.094;5.232;2023-04-24T09:17:43;12.3;;;3.8;;
63953;SDS011;50128;52.094;5.232;2023-04-24T09:19:19;12.8;;;3.6;;
63953;SDS011;50128;52.094;5.232;2023-04-24T09:20:57;12.3;;;4.3;;
63953;SDS011;50128;52.094;5.232;2023-04-24T09:22:34;15.2;;;4.61;;
63953;SDS011;50128;52.094;5.232;2023-04-24T09:25:53;12.4;;;3.9;;
63953;SDS011;50128;52.094;5.232;2023-04-24T09:27:31;12.3;;;3.6;;
63953;SDS011;50128;52.094;5.232;2023-04-24T09:29:08;13.7;;;4.1;;
63953;SDS011;50128;52.094;5.232;2023-04-24T09:32:38;12.3;;;3.5;;
63953;SDS011;50128;52.094;5.232;2023-04-24T09:34:18;15.0;;;4.61;;
63953;SDS011;50128;52.094;5.232;2023-04-24T09:35:57;10.4;;;3.7;;
63953;SDS011;50128;52.094;5.232;2023-04-24T09:37:35;9.1;;;3.4;;
63953;SDS011;50128;52.094;5.232;2023-04-24T09:40:51;10.1;;;3.5;;
63953;SDS011;50128;52.094;5.232;2023-04-24T09:42:28;13.5;;;4.1;;
63953;SDS011;50128;52.094;5.232;2023-04-24T09:44:11;9.31;;;3.3;;
63953;SDS011;50128;52.094;5.232;2023-04-24T09:45:48;10.7;;;3.1;;
63953;SDS011;50128;52.094;5.232;2023-04-24T09:49:07;12.1;;;3.3;;
63953;SDS011;50128;52.094;5.232;2023-04-24T09:50:45;8.5;;;3.0;;
63953;SDS011;50128;52.094;5.232;2023-04-24T09:52:22;9.81;;;2.9;;
63953;SDS011;50128;52.094;5.232;2023-04-24T09:53:58;12.5;;;3.0;;
63953;SDS011;50128;52.094;5.232;2023-04-24T09:57:15;8.9;;;2.7;;
63953;SDS011;50128;52.094;5.232;2023-04-24T09:58:51;8.81;;;3.1;;
63953;SDS011;50128;52.094;5.232;2023-04-24T10:00:29;7.8;;;2.4;;
63953;SDS011;50128;52.094;5.232;2023-04-24T10:03:53;9.9;;;2.4;;
63953;SDS011;50128;52.094;5.232;2023-04-24T10:05:29;9.0;;;2.5;;
63953;SDS011;50128;52.094;5.232;2023-04-24T10:07:07;8.71;;;2.31;;
63953;SDS011;50128;52.094;5.232;2023-04-24T10:08:43;8.2;;;2.4;;
63953;SDS011;50128;52.094;5.232;2023-04-24T10:11:57;10.21;;;2.6;;
63953;SDS011;50128;52.094;5.232;2023-04-24T10:13:35;10.8;;;2.8;;
63953;SDS011;50128;52.094;5.232;2023-04-24T10:15:11;7.7;;;2.6;;
63953;SDS011;50128;52.094;5.232;2023-04-24T10:18:28;8.9;;;2.5;;
63953;SDS011;50128;52.094;5.232;2023-04-24T10:20:06;11.1;;;2.9;;
63953;SDS011;50128;52.094;5.232;2023-04-24T10:21:43;8.81;;;2.5;;
63953;SDS011;50128;52.094;5.232;2023-04-24T10:23:20;6.4;;;2.31;;
63953;SDS011;50128;52.094;5.232;2023-04-24T10:26:35;7.0;;;2.6;;
63953;SDS011;50128;52.094;5.232;2023-04-24T10:28:11;6.3;;;1.9;;
63953;SDS011;50128;52.094;5.232;2023-04-24T10:29:48;6.5;;;2.1;;
63953;SDS011;50128;52.094;5.232;2023-04-24T10:33:07;5.5;;;2.4;;
63953;SDS011;50128;52.094;5.232;2023-04-24T10:34:44;4.8;;;1.6;;
63953;SDS011;50128;52.094;5.232;2023-04-24T10:36:21;5.2;;;1.2;;
63953;SDS011;50128;52.094;5.232;2023-04-24T10:37:59;4.7;;;1.3;;
63953;SDS011;50128;52.094;5.232;2023-04-24T10:41:17;6.8;;;1.6;;
63953;SDS011;50128;52.094;5.232;2023-04-24T10:42:54;5.2;;;1.4;;
63953;SDS011;50128;52.094;5.232;2023-04-24T10:44:35;5.8;;;1.5;;
63953;SDS011;50128;52.094;5.232;2023-04-24T10:46:16;4.8;;;1.4;;
63953;SDS011;50128;52.094;5.232;2023-04-24T10:49:34;4.41;;;1.5;;
63953;SDS011;50128;52.094;5.232;2023-04-24T10:51:11;4.41;;;1.5;;
63953;SDS011;50128;52.094;5.232;2023-04-24T10:52:48;5.9;;;1.7;;
63953;SDS011;50128;52.094;5.232;2023-04-24T10:56:04;5.6;;;1.2;;
63953;SDS011;50128;52.094;5.232;2023-04-24T10:58:00;4.8;;;1.11;;
63953;SDS011;50128;52.094;5.232;2023-04-24T10:59:38;4.3;;;1.0;;
63953;SDS011;50128;52.094;5.232;2023-04-24T11:01:30;5.11;;;1.2;;
63953;SDS011;50128;52.094;5.232;2023-04-24T11:03:22;4.91;;;1.4;;
63953;SDS011;50128;52.094;5.232;2023-04-24T11:05:02;3.5;;;1.11;;
63953;SDS011;50128;52.094;5.232;2023-04-24T11:08:21;5.7;;;1.6;;
63953;SDS011;50128;52.094;5.232;2023-04-24T11:10:00;7.4;;;1.8;;
63953;SDS011;50128;52.094;5.232;2023-04-24T11:11:36;6.1;;;1.3;;
63953;SDS011;50128;52.094;5.232;2023-04-24T11:15:00;6.5;;;1.6;;
63953;SDS011;50128;52.094;5.232;2023-04-24T11:16:42;7.8;;;1.8;;
63953;SDS011;50128;52.094;5.232;2023-04-24T11:18:36;5.4;;;1.6;;
63953;SDS011;50128;52.094;5.232;2023-04-24T11:20:16;6.0;;;1.8;;
63953;SDS011;50128;52.094;5.232;2023-04-24T11:21:54;7.3;;;1.7;;
63953;SDS011;50128;52.094;5.232;2023-04-24T11:25:11;7.9;;;1.8;;
63953;SDS011;50128;52.094;5.232;2023-04-24T11:26:47;7.2;;;1.8;;
63953;SDS011;50128;52.094;5.232;2023-04-24T11:28:23;8.0;;;1.9;;
63953;SDS011;50128;52.094;5.232;2023-04-24T11:31:38;9.4;;;2.0;;
63953;SDS011;50128;52.094;5.232;2023-04-24T11:33:16;9.5;;;2.1;;
63953;SDS011;50128;52.094;5.232;2023-04-24T11:34:56;6.3;;;1.7;;
63953;SDS011;50128;52.094;5.232;2023-04-24T11:36:34;5.11;;;1.2;;
63953;SDS011;50128;52.094;5.232;2023-04-24T11:39:50;4.2;;;1.2;;
63953;SDS011;50128;52.094;5.232;2023-04-24T11:41:29;4.2;;;1.2;;
63953;SDS011;50128;52.094;5.232;2023-04-24T11:43:05;3.1;;;0.8;;
63953;SDS011;50128;52.094;5.232;2023-04-24T11:46:20;4.41;;;1.0;;
63953;SDS011;50128;52.094;5.232;2023-04-24T11:47:56;3.5;;;0.9;;
63953;SDS011;50128;52.094;5.232;2023-04-24T11:49:33;4.61;;;0.9;;
63953;SDS011;50128;52.094;5.232;2023-04-24T11:51:12;3.8;;;1.0;;
63953;SDS011;50128;52.094;5.232;2023-04-24T11:54:25;3.7;;;1.0;;
63953;SDS011;50128;52.094;5.232;2023-04-24T11:56:02;6.1;;;1.3;;
63953;SDS011;50128;52.094;5.232;2023-04-24T11:57:39;5.5;;;1.3;;
63953;SDS011;50128;52.094;5.232;2023-04-24T12:00:55;4.0;;;1.0;;
63953;SDS011;50128;52.094;5.232;2023-04-24T12:02:32;4.0;;;1.0;;
63953;SDS011;50128;52.094;5.232;2023-04-24T12:04:08;6.0;;;1.5;;
63953;SDS011;50128;52.094;5.232;2023-04-24T12:05:44;6.1;;;1.5;;
63953;SDS011;50128;52.094;5.232;2023-04-24T12:08:59;5.11;;;1.3;;
63953;SDS011;50128;52.094;5.232;2023-04-24T12:10:35;5.3;;;1.6;;
63953;SDS011;50128;52.094;5.232;2023-04-24T12:12:11;5.3;;;1.4;;
63953;SDS011;50128;52.094;5.232;2023-04-24T12:15:24;5.9;;;1.5;;
63953;SDS011;50128;52.094;5.232;2023-04-24T12:17:01;5.8;;;1.4;;
63953;SDS011;50128;52.094;5.232;2023-04-24T12:18:42;5.7;;;1.3;;
63953;SDS011;50128;52.094;5.232;2023-04-24T12:20:23;5.11;;;1.7;;
63953;SDS011;50128;52.094;5.232;2023-04-24T12:23:42;11.6;;;5.6;;
63953;SDS011;50128;52.094;5.232;2023-04-24T12:25:18;12.8;;;5.7;;
63953;SDS011;50128;52.094;5.232;2023-04-24T12:26:56;8.4;;;3.3;;
63953;SDS011;50128;52.094;5.232;2023-04-24T12:30:14;8.6;;;2.9;;
63953;SDS011;50128;52.094;5.232;2023-04-24T12:31:51;7.3;;;2.1;;
63953;SDS011;50128;52.094;5.232;2023-04-24T12:33:28;6.4;;;2.0;;
63953;SDS011;50128;52.094;5.232;2023-04-24T12:35:09;8.0;;;2.6;;
63953;SDS011;50128;52.094;5.232;2023-04-24T12:38:23;6.2;;;2.21;;
63953;SDS011;50128;52.094;5.232;2023-04-24T12:40:02;8.31;;;3.1;;
63953;SDS011;50128;52.094;5.232;2023-04-24T12:41:48;10.21;;;2.6;;
63953;SDS011;50128;52.094;5.232;2023-04-24T12:43:27;10.9;;;4.41;;
63953;SDS011;50128;52.094;5.232;2023-04-24T12:46:42;11.5;;;3.2;;
63953;SDS011;50128;52.094;5.232;2023-04-24T12:48:18;8.0;;;2.7;;
63953;SDS011;50128;52.094;5.232;2023-04-24T12:49:54;7.3;;;2.4;;
63953;SDS011;50128;52.094;5.232;2023-04-24T12:53:07;12.1;;;2.6;;
63953;SDS011;50128;52.094;5.232;2023-04-24T12:54:44;10.3;;;3.6;;
63953;SDS011;50128;52.094;5.232;2023-04-24T12:56:21;10.5;;;3.3;;
63953;SDS011;50128;52.094;5.232;2023-04-24T12:57:57;10.21;;;3.0;;
63953;SDS011;50128;52.094;5.232;2023-04-24T13:01:09;10.8;;;3.9;;
63953;SDS011;50128;52.094;5.232;2023-04-24T13:02:45;12.6;;;5.2;;
63953;SDS011;50128;52.094;5.232;2023-04-24T13:04:21;11.6;;;3.2;;
63953;SDS011;50128;52.094;5.232;2023-04-24T13:07:33;9.4;;;3.1;;
63953;SDS011;50128;52.094;5.232;2023-04-24T13:09:10;12.4;;;2.8;;
63953;SDS011;50128;52.094;5.232;2023-04-24T13:10:46;14.7;;;3.6;;
63953;SDS011;50128;52.094;5.232;2023-04-24T13:13:59;10.1;;;2.8;;
63953;SDS011;50128;52.094;5.232;2023-04-24T13:15:35;14.1;;;3.2;;
63953;SDS011;50128;52.094;5.232;2023-04-24T13:17:11;11.6;;;3.3;;
63953;SDS011;50128;52.094;5.232;2023-04-24T13:20:25;9.6;;;3.2;;
63953;SDS011;50128;52.094;5.232;2023-04-24T13:22:01;10.0;;;3.3;;
63953;SDS011;50128;52.094;5.232;2023-04-24T13:23:38;12.0;;;3.2;;